createdAt,value
2024-02-29T00:00:01.577Z,118.18
2024-02-29T00:15:01.550Z,119.48
2024-02-29T00:30:01.956Z,120.4
2024-02-29T00:45:02.219Z,121.5
2024-02-29T01:00:01.913Z,122.23
2024-02-29T01:15:02.040Z,122.39
2024-02-29T01:30:02.282Z,122.31
2024-02-29T01:45:02.379Z,120.69
2024-02-29T02:00:01.344Z,120.53
2024-02-29T02:15:01.538Z,120.61
2024-02-29T02:30:01.894Z,120.77
2024-02-29T02:45:02.948Z,120.89
2024-02-29T03:00:01.635Z,120.37
2024-02-29T03:15:01.426Z,120.49
2024-02-29T03:30:01.726Z,120.28
2024-02-29T03:45:02.068Z,120.28
2024-02-29T04:00:02.044Z,120.45
2024-02-29T04:15:02.051Z,120.12
2024-02-29T04:30:02.231Z,120.28
2024-02-29T04:45:02.284Z,120.28
2024-02-29T05:00:02.572Z,120.2
2024-02-29T05:15:01.283Z,118.83
2024-02-29T05:30:01.756Z,118.46
2024-02-29T05:45:02.958Z,116.68
2024-02-29T06:00:01.416Z,115.19
2024-02-29T06:15:01.908Z,114.17
2024-02-29T06:30:01.647Z,113.4
2024-02-29T06:45:01.779Z,112.55
2024-02-29T07:00:02.035Z,111.95
2024-02-29T07:15:02.159Z,111.22
2024-02-29T07:30:02.319Z,109.84
2024-02-29T07:45:02.430Z,107.5
2024-02-29T08:00:01.483Z,103.16
2024-02-29T08:15:01.347Z,97.1
2024-02-29T08:30:01.666Z,91.55
2024-02-29T08:45:02.020Z,82.81
2024-02-29T09:00:01.381Z,79.45
2024-02-29T09:15:01.417Z,75.28
2024-02-29T09:30:01.935Z,68.76
2024-02-29T09:45:02.104Z,61.72
2024-02-29T10:00:01.300Z,52.66
2024-02-29T10:15:02.123Z,47.72
2024-02-29T10:30:03.081Z,44.8
2024-02-29T10:45:02.128Z,40.64
2024-02-29T11:00:01.788Z,37.92
2024-02-29T11:15:02.150Z,37.76
2024-02-29T11:30:01.806Z,37.76
2024-02-29T11:45:01.980Z,31.57
2024-02-29T12:00:01.415Z,31.57
2024-02-29T12:15:02.037Z,31.57
2024-02-29T12:30:02.017Z,31.57
2024-02-29T12:45:02.343Z,36.75
2024-02-29T13:00:02.442Z,36.75
2024-02-29T13:15:01.935Z,36.75
2024-02-29T13:30:01.314Z,36.75
2024-02-29T13:45:01.651Z,45.17
2024-02-29T14:00:02.238Z,41.28
2024-02-29T14:15:01.204Z,12.2
2024-02-29T14:30:01.576Z,43.35
2024-02-29T14:45:01.984Z,52.66
2024-02-29T15:00:01.638Z,65.49
2024-02-29T15:15:01.785Z,72.57
2024-02-29T15:30:01.941Z,76.9
2024-02-29T15:45:02.245Z,80.82
2024-02-29T16:00:02.329Z,85.32
2024-02-29T16:15:02.432Z,89.93
2024-02-29T16:30:01.432Z,94.22
2024-02-29T16:45:01.748Z,98.27
2024-02-29T17:00:02.960Z,101.71
2024-02-29T17:15:01.543Z,103.77
2024-02-29T17:30:01.930Z,102.84
2024-02-29T17:45:02.256Z,101.99
2024-02-29T18:00:03.152Z,101.51
2024-02-29T18:15:02.278Z,104.1
2024-02-29T18:30:01.995Z,102.84
2024-02-29T18:45:02.209Z,105.76
2024-02-29T19:00:02.289Z,107.9
2024-02-29T19:15:02.423Z,106.85
2024-02-29T19:30:01.361Z,108.63
2024-02-29T19:45:01.660Z,108.79
2024-02-29T20:00:02.925Z,109.4
2024-02-29T20:15:01.489Z,108.71
2024-02-29T20:30:01.884Z,109.2
2024-02-29T20:45:02.214Z,108.47
2024-02-29T21:00:01.684Z,108.39
2024-02-29T21:15:01.824Z,110.57
2024-02-29T21:30:02.045Z,110.94
2024-02-29T21:45:02.218Z,111.62
2024-02-29T22:00:01.272Z,110.49
2024-02-29T22:15:02.566Z,112.31
2024-02-29T22:30:01.388Z,112.15
2024-02-29T22:45:01.658Z,112.72
2024-02-29T23:00:02.119Z,112.39
2024-02-29T23:15:01.509Z,112.92
2024-02-29T23:30:01.967Z,112.11
2024-02-29T23:45:02.184Z,113.12
